Time;durP1;ratioP1;P1;durP2;ratioP2;P2;SDS_P1;SDS_P2;PMS_P1;PMS_P2;Temp;Humidity;BMP_temperature;BMP_pressure;BME280_temperature;BME280_humidity;BME280_pressure;Samples;Min_cycle;Max_cycle;Signal;HPM_P1;HPM_P2
2021/05/15 00:00:55;;;;;;;12.65;10.27;;;;;;;;;;5112054;28;20019;-63
2021/05/15 00:03:20;;;;;;;11.68;9.88;;;;;;;;;;5112870;28;20019;-63
2021/05/15 00:05:46;;;;;;;10.15;8.93;;;;;;;;;;5109999;28;20221;-62
2021/05/15 00:08:11;;;;;;;10.52;9.45;;;;;;;;;;5097999;28;20039;-63
2021/05/15 00:10:37;;;;;;;9.00;8.13;;;;;;;;;;5096331;28;20077;-63
2021/05/15 00:13:02;;;;;;;10.05;8.45;;;;;;;;;;5092429;28;20103;-63
2021/05/15 00:15:27;;;;;;;9.48;8.48;;;;;;;;;;5098718;28;20055;-63
2021/05/15 00:17:53;;;;;;;9.20;8.30;;;;;;;;;;5089945;28;20068;-63
2021/05/15 00:20:18;;;;;;;10.35;8.35;;;;;;;;;;5092434;28;20024;-63
2021/05/15 00:22:44;;;;;;;10.55;9.15;;;;;;;;;;5091624;28;20016;-63
2021/05/15 00:25:10;;;;;;;10.40;9.30;;;;;;;;;;5094676;28;20020;-63
2021/05/15 00:27:36;;;;;;;11.23;10.13;;;;;;;;;;5087380;28;20083;-63
2021/05/15 00:30:06;;;;;;;11.77;10.07;;;;;;;;;;5093932;28;20059;-62
2021/05/15 00:32:31;;;;;;;10.90;9.75;;;;;;;;;;5092969;28;20062;-62
2021/05/15 00:34:56;;;;;;;11.18;9.57;;;;;;;;;;5112116;28;20129;-63
2021/05/15 00:37:22;;;;;;;10.65;9.55;;;;;;;;;;5109130;28;20426;-63
2021/05/15 00:39:47;;;;;;;14.60;10.70;;;;;;;;;;5111786;28;20438;-63
2021/05/15 00:42:12;;;;;;;11.07;9.98;;;;;;;;;;5095551;28;20012;-62
2021/05/15 00:44:44;;;;;;;11.52;9.18;;;;;;;;;;5104471;28;20039;-62
2021/05/15 00:47:20;;;;;;;10.90;9.35;;;;;;;;;;5093303;28;20042;-62
2021/05/15 00:49:47;;;;;;;10.32;9.25;;;;;;;;;;5111621;28;20023;-62
2021/05/15 00:52:12;;;;;;;9.88;8.85;;;;;;;;;;5107375;28;20024;-62
2021/05/15 00:54:38;;;;;;;10.20;8.77;;;;;;;;;;5096186;28;20095;-63
2021/05/15 00:57:04;;;;;;;9.18;8.23;;;;;;;;;;5088581;28;20024;-63
2021/05/15 00:59:30;;;;;;;10.05;8.25;;;;;;;;;;5090930;28;20016;-63
2021/05/15 01:05:13;;;;;;;10.73;9.23;;;;;;;;;;5092118;28;20120;-63
2021/05/15 01:07:42;;;;;;;13.38;8.93;;;;;;;;;;5089378;28;20020;-62
2021/05/15 01:10:07;;;;;;;9.30;8.38;;;;;;;;;;5103184;28;20521;-62
2021/05/15 01:12:33;;;;;;;11.32;7.97;;;;;;;;;;5096491;28;20012;-62
2021/05/15 01:14:58;;;;;;;10.45;7.13;;;;;;;;;;5110457;28;20409;-63
2021/05/15 01:17:23;;;;;;;8.27;7.18;;;;;;;;;;5092627;28;20016;-62
2021/05/15 01:19:49;;;;;;;7.38;6.57;;;;;;;;;;5109736;28;20467;-62
2021/05/15 01:22:15;;;;;;;9.02;6.78;;;;;;;;;;5104328;28;20055;-62
2021/05/15 01:24:41;;;;;;;7.63;6.82;;;;;;;;;;5099898;28;20367;-63
2021/05/15 01:27:07;;;;;;;7.32;6.00;;;;;;;;;;5112791;28;20131;-62
2021/05/15 01:29:33;;;;;;;5.05;4.65;;;;;;;;;;5094851;28;20027;-62
2021/05/15 01:31:58;;;;;;;6.47;4.93;;;;;;;;;;5095487;28;20027;-63
2021/05/15 01:34:23;;;;;;;6.20;5.68;;;;;;;;;;5095327;28;20114;-62
2021/05/15 01:36:49;;;;;;;6.20;5.60;;;;;;;;;;5092733;28;20019;-62
2021/05/15 01:39:15;;;;;;;6.75;6.05;;;;;;;;;;5094824;28;20012;-63
2021/05/15 01:41:41;;;;;;;6.00;5.40;;;;;;;;;;5098297;28;20042;-63
2021/05/15 01:44:06;;;;;;;6.72;5.30;;;;;;;;;;5101279;28;20101;-63
2021/05/15 01:46:31;;;;;;;6.22;5.20;;;;;;;;;;5098251;28;20011;-63
2021/05/15 01:48:57;;;;;;;6.22;5.63;;;;;;;;;;5095452;28;20407;-62
2021/05/15 01:51:22;;;;;;;4.90;4.50;;;;;;;;;;5104857;28;20585;-63
2021/05/15 01:53:49;;;;;;;5.18;4.38;;;;;;;;;;5094731;28;20540;-62
2021/05/15 01:56:15;;;;;;;4.88;4.47;;;;;;;;;;5101902;28;20028;-63
2021/05/15 01:58:41;;;;;;;5.20;4.70;;;;;;;;;;5113688;28;20012;-62
2021/05/15 02:01:06;;;;;;;5.03;4.60;;;;;;;;;;5100294;28;20498;-63
2021/05/15 02:03:32;;;;;;;6.00;4.57;;;;;;;;;;5100026;28;20045;-62
2021/05/15 02:05:58;;;;;;;4.82;4.20;;;;;;;;;;5091730;28;20048;-63
2021/05/15 02:08:23;;;;;;;4.82;4.30;;;;;;;;;;5092989;28;20099;-63
2021/05/15 02:10:50;;;;;;;4.10;3.70;;;;;;;;;;5104306;28;20004;-63
2021/05/15 02:13:18;;;;;;;2.97;2.63;;;;;;;;;;5112348;28;20023;-62
2021/05/15 02:15:43;;;;;;;5.38;3.72;;;;;;;;;;5096497;28;20391;-63
2021/05/15 02:18:08;;;;;;;2.90;2.70;;;;;;;;;;5092059;28;20016;-62
2021/05/15 02:20:34;;;;;;;2.70;2.50;;;;;;;;;;5108957;28;20038;-63
2021/05/15 02:22:59;;;;;;;3.75;3.40;;;;;;;;;;5098933;27;20016;-63
2021/05/15 02:25:25;;;;;;;5.68;3.28;;;;;;;;;;5096375;28;20429;-63
2021/05/15 02:27:50;;;;;;;4.05;3.10;;;;;;;;;;5104833;28;20251;-63
2021/05/15 02:30:16;;;;;;;3.05;2.80;;;;;;;;;;5108344;28;20101;-63
2021/05/15 02:32:41;;;;;;;3.65;3.13;;;;;;;;;;5105006;28;20024;-63
2021/05/15 02:35:06;;;;;;;3.55;3.25;;;;;;;;;;5100706;28;20030;-63
2021/05/15 02:37:32;;;;;;;4.28;2.85;;;;;;;;;;5090837;28;20039;-62
2021/05/15 02:39:57;;;;;;;3.00;2.70;;;;;;;;;;5094147;28;20423;-63
2021/05/15 02:42:22;;;;;;;3.60;2.80;;;;;;;;;;5093993;28;20066;-62
2021/05/15 02:44:47;;;;;;;3.05;2.85;;;;;;;;;;5099950;28;20126;-62
2021/05/15 02:47:13;;;;;;;3.25;3.00;;;;;;;;;;5101229;28;20023;-63
2021/05/15 02:49:38;;;;;;;4.85;2.25;;;;;;;;;;5113360;28;20356;-62
2021/05/15 02:52:03;;;;;;;4.53;3.28;;;;;;;;;;5113770;28;20470;-62
2021/05/15 02:54:28;;;;;;;2.40;2.08;;;;;;;;;;5098575;28;20474;-63
2021/05/15 02:56:54;;;;;;;2.42;2.22;;;;;;;;;;5090715;28;20020;-62
2021/05/15 02:59:19;;;;;;;1.83;1.73;;;;;;;;;;5093809;28;20062;-63
2021/05/15 03:01:44;;;;;;;1.33;1.05;;;;;;;;;;5104983;28;20050;-62
2021/05/15 03:04:09;;;;;;;1.40;0.93;;;;;;;;;;5095796;28;20016;-63
2021/05/15 03:06:34;;;;;;;1.67;0.63;;;;;;;;;;5090398;28;20024;-62
2021/05/15 03:09:00;;;;;;;0.70;0.70;;;;;;;;;;5094233;28;20123;-63
2021/05/15 03:11:25;;;;;;;1.35;0.80;;;;;;;;;;5102746;28;20102;-63
2021/05/15 03:13:50;;;;;;;0.93;0.68;;;;;;;;;;5111688;28;20077;-63
2021/05/15 03:16:15;;;;;;;1.50;0.55;;;;;;;;;;5103649;28;20524;-62
2021/05/15 03:18:41;;;;;;;1.05;0.70;;;;;;;;;;5091720;28;20494;-62
2021/05/15 03:21:06;;;;;;;1.13;0.88;;;;;;;;;;5100138;28;20043;-62
2021/05/15 03:23:31;;;;;;;1.25;0.98;;;;;;;;;;5096214;28;20034;-62
2021/05/15 03:25:56;;;;;;;1.20;0.93;;;;;;;;;;5097262;28;20406;-63
2021/05/15 03:28:21;;;;;;;1.35;1.00;;;;;;;;;;5113018;28;20112;-63
2021/05/15 03:30:47;;;;;;;2.13;1.08;;;;;;;;;;5113365;28;20015;-63
2021/05/15 03:33:12;;;;;;;1.02;0.93;;;;;;;;;;5098161;28;20123;-62
2021/05/15 03:35:37;;;;;;;1.30;1.20;;;;;;;;;;5090628;28;20055;-63
2021/05/15 03:38:02;;;;;;;1.92;1.35;;;;;;;;;;5091434;28;20020;-62
2021/05/15 03:40:28;;;;;;;1.50;1.40;;;;;;;;;;5091551;28;20024;-62
2021/05/15 03:42:56;;;;;;;1.13;1.02;;;;;;;;;;5109956;28;20424;-63
2021/05/15 03:45:22;;;;;;;1.50;1.27;;;;;;;;;;5108355;28;20027;-63
2021/05/15 03:47:47;;;;;;;1.85;1.13;;;;;;;;;;5109290;28;20378;-63
2021/05/15 03:50:12;;;;;;;2.25;1.25;;;;;;;;;;5102918;28;20435;-63
2021/05/15 03:52:37;;;;;;;1.45;1.35;;;;;;;;;;5091235;28;20081;-63
2021/05/15 03:55:03;;;;;;;3.13;1.40;;;;;;;;;;5092651;28;20024;-63
2021/05/15 03:57:28;;;;;;;1.38;1.27;;;;;;;;;;5098256;28;20020;-62
2021/05/15 03:59:53;;;;;;;1.27;1.17;;;;;;;;;;5100525;28;20115;-63
2021/05/15 04:02:22;;;;;;;1.70;1.08;;;;;;;;;;5094721;28;20433;-63
2021/05/15 04:04:47;;;;;;;1.42;1.33;;;;;;;;;;5112729;28;20474;-62
2021/05/15 04:07:12;;;;;;;1.70;1.60;;;;;;;;;;5109898;28;20055;-63
2021/05/15 04:09:38;;;;;;;2.45;1.90;;;;;;;;;;5112116;28;20020;-63
2021/05/15 04:12:03;;;;;;;2.45;2.25;;;;;;;;;;5092487;28;20399;-63
2021/05/15 04:14:37;;;;;;;3.50;1.75;;;;;;;;;;5089972;28;20024;-62
2021/05/15 04:19:31;;;;;;;1.48;1.38;;;;;;;;;;5099464;28;20101;-63
2021/05/15 04:21:56;;;;;;;1.98;1.27;;;;;;;;;;5111512;28;20041;-63
2021/05/15 04:24:24;;;;;;;1.67;1.23;;;;;;;;;;5104790;28;20020;-63
2021/05/15 04:26:53;;;;;;;1.02;0.82;;;;;;;;;;5087377;28;20483;-62
2021/05/15 04:29:20;;;;;;;1.13;1.00;;;;;;;;;;5091645;28;20035;-62
2021/05/15 04:31:45;;;;;;;0.80;0.50;;;;;;;;;;5106239;28;20034;-61
2021/05/15 04:34:10;;;;;;;0.80;0.60;;;;;;;;;;5112347;28;20015;-62
2021/05/15 04:36:35;;;;;;;1.27;0.57;;;;;;;;;;5108385;28;20024;-61
2021/05/15 04:39:01;;;;;;;2.55;0.60;;;;;;;;;;5102526;28;20586;-62
2021/05/15 04:41:26;;;;;;;0.70;0.70;;;;;;;;;;5098390;28;20060;-62
2021/05/15 04:43:51;;;;;;;0.90;0.73;;;;;;;;;;5107523;28;20039;-62
2021/05/15 04:46:16;;;;;;;1.65;0.88;;;;;;;;;;5095324;28;20467;-63
2021/05/15 04:48:44;;;;;;;1.40;0.75;;;;;;;;;;5091306;28;20028;-62
2021/05/15 04:51:10;;;;;;;1.40;0.60;;;;;;;;;;5098581;28;20108;-62
2021/05/15 04:53:35;;;;;;;1.02;0.57;;;;;;;;;;5091592;28;20482;-62
2021/05/15 04:56:00;;;;;;;0.80;0.65;;;;;;;;;;5103768;28;20035;-62
2021/05/15 04:58:26;;;;;;;1.05;0.40;;;;;;;;;;5110417;28;20023;-62
2021/05/15 05:00:51;;;;;;;1.63;0.63;;;;;;;;;;5103222;28;20020;-62
2021/05/15 05:03:16;;;;;;;1.05;0.50;;;;;;;;;;5091538;28;20175;-63
2021/05/15 05:05:42;;;;;;;1.30;0.63;;;;;;;;;;5089418;28;20046;-62
2021/05/15 05:08:07;;;;;;;0.95;0.60;;;;;;;;;;5090617;28;20055;-62
2021/05/15 05:10:32;;;;;;;0.40;0.40;;;;;;;;;;5102484;28;20019;-62
2021/05/15 05:13:01;;;;;;;0.88;0.52;;;;;;;;;;5093998;28;20027;-63
2021/05/15 05:15:26;;;;;;;1.30;0.30;;;;;;;;;;5102072;28;20106;-63
2021/05/15 05:17:52;;;;;;;1.05;0.30;;;;;;;;;;5108787;28;20411;-63
2021/05/15 05:20:17;;;;;;;1.65;0.52;;;;;;;;;;5108094;28;20489;-63
2021/05/15 05:22:42;;;;;;;0.82;0.38;;;;;;;;;;5093572;28;20016;-63
2021/05/15 05:25:11;;;;;;;2.08;0.25;;;;;;;;;;5089977;28;20065;-62
2021/05/15 05:27:36;;;;;;;0.55;0.20;;;;;;;;;;5090842;28;20036;-62
2021/05/15 05:30:01;;;;;;;0.50;0.30;;;;;;;;;;5109556;28;20015;-62
2021/05/15 05:32:27;;;;;;;1.27;0.20;;;;;;;;;;5090932;28;20028;-63
2021/05/15 05:34:52;;;;;;;2.15;1.17;;;;;;;;;;5091319;28;20024;-62
2021/05/15 05:37:17;;;;;;;0.73;0.20;;;;;;;;;;5088174;28;20056;-62
2021/05/15 05:39:42;;;;;;;1.10;0.30;;;;;;;;;;5093863;28;20383;-62
2021/05/15 05:42:07;;;;;;;0.22;0.20;;;;;;;;;;5095878;28;20039;-62
2021/05/15 05:44:33;;;;;;;0.52;0.20;;;;;;;;;;5098067;28;20024;-62
2021/05/15 05:46:58;;;;;;;0.98;0.15;;;;;;;;;;5105169;28;20024;-63
2021/05/15 05:49:23;;;;;;;1.17;0.20;;;;;;;;;;5103615;28;20016;-64
2021/05/15 05:51:49;;;;;;;0.57;0.40;;;;;;;;;;5103587;28;20041;-61
2021/05/15 05:54:14;;;;;;;0.63;0.10;;;;;;;;;;5088971;28;20031;-62
2021/05/15 05:56:39;;;;;;;0.82;0.20;;;;;;;;;;5088395;28;20020;-62
2021/05/15 05:59:04;;;;;;;0.85;0.20;;;;;;;;;;5101568;28;20016;-62
2021/05/15 06:01:30;;;;;;;1.42;0.20;;;;;;;;;;5110285;28;20511;-62
2021/05/15 06:03:55;;;;;;;1.38;0.13;;;;;;;;;;5108229;28;20049;-62
2021/05/15 06:06:20;;;;;;;1.40;0.40;;;;;;;;;;5092022;28;20524;-63
2021/05/15 06:08:45;;;;;;;1.17;0.10;;;;;;;;;;5093938;28;20028;-62
2021/05/15 06:11:11;;;;;;;1.20;0.25;;;;;;;;;;5096807;28;20035;-62
2021/05/15 06:13:36;;;;;;;0.25;0.08;;;;;;;;;;5094081;28;20012;-62
2021/05/15 06:16:02;;;;;;;1.33;0.20;;;;;;;;;;5102012;28;20027;-62
2021/05/15 06:18:27;;;;;;;1.90;0.40;;;;;;;;;;5096245;28;20103;-62
2021/05/15 06:20:53;;;;;;;1.05;0.10;;;;;;;;;;5096922;28;20526;-63
2021/05/15 06:23:18;;;;;;;1.67;0.20;;;;;;;;;;5103973;28;20012;-63
2021/05/15 06:25:43;;;;;;;0.73;0.10;;;;;;;;;;5105758;28;20073;-62
2021/05/15 06:28:09;;;;;;;0.55;0.20;;;;;;;;;;5109925;28;20142;-63
2021/05/15 06:30:34;;;;;;;1.48;0.10;;;;;;;;;;5095256;28;20020;-63
2021/05/15 06:32:59;;;;;;;0.90;0.15;;;;;;;;;;5095081;28;20039;-63
2021/05/15 06:35:25;;;;;;;1.38;0.20;;;;;;;;;;5094141;28;20463;-63
2021/05/15 06:37:50;;;;;;;0.88;0.20;;;;;;;;;;5090562;28;20070;-63
2021/05/15 06:40:15;;;;;;;1.00;0.22;;;;;;;;;;5095543;28;20065;-63
2021/05/15 06:42:41;;;;;;;1.45;0.10;;;;;;;;;;5093525;28;20038;-62
2021/05/15 06:45:07;;;;;;;1.00;0.30;;;;;;;;;;5106943;28;20026;-62
2021/05/15 06:47:33;;;;;;;0.90;0.20;;;;;;;;;;5106394;28;20158;-63
2021/05/15 06:49:58;;;;;;;0.22;0.10;;;;;;;;;;5093646;28;20094;-63
2021/05/15 06:52:23;;;;;;;0.47;0.10;;;;;;;;;;5093858;28;20032;-63
2021/05/15 06:54:49;;;;;;;0.85;0.10;;;;;;;;;;5103371;28;20496;-63
2021/05/15 06:57:14;;;;;;;0.43;0.20;;;;;;;;;;5091320;28;20074;-63
2021/05/15 06:59:39;;;;;;;1.05;0.10;;;;;;;;;;5096243;28;20024;-63
2021/05/15 07:02:05;;;;;;;0.43;0.10;;;;;;;;;;5105863;28;20190;-63
2021/05/15 07:04:30;;;;;;;1.75;0.20;;;;;;;;;;5111503;28;20115;-63
2021/05/15 07:06:55;;;;;;;0.60;0.20;;;;;;;;;;5107484;27;20486;-63
2021/05/15 07:09:21;;;;;;;2.50;0.20;;;;;;;;;;5107880;28;20015;-62
2021/05/15 07:11:46;;;;;;;0.93;0.15;;;;;;;;;;5103674;28;20028;-62
2021/05/15 07:14:11;;;;;;;0.85;0.13;;;;;;;;;;5103049;28;20030;-63
2021/05/15 07:16:37;;;;;;;0.93;0.10;;;;;;;;;;5108830;28;20110;-62
2021/05/15 07:19:02;;;;;;;0.57;0.10;;;;;;;;;;5092903;28;20016;-62
2021/05/15 07:21:27;;;;;;;1.02;0.10;;;;;;;;;;5092293;28;20074;-62
2021/05/15 07:23:53;;;;;;;1.63;0.32;;;;;;;;;;5093752;28;20038;-62
2021/05/15 07:26:18;;;;;;;0.77;0.30;;;;;;;;;;5105697;28;20459;-62
2021/05/15 07:28:43;;;;;;;0.43;0.10;;;;;;;;;;5100168;28;20024;-62
2021/05/15 07:31:08;;;;;;;1.15;0.40;;;;;;;;;;5092247;28;20356;-63
2021/05/15 07:33:34;;;;;;;1.35;0.10;;;;;;;;;;5092187;28;20012;-62
2021/05/15 07:35:59;;;;;;;0.60;0.10;;;;;;;;;;5090962;28;20044;-62
2021/05/15 07:38:26;;;;;;;2.10;0.10;;;;;;;;;;5095856;28;20020;-62
2021/05/15 07:40:51;;;;;;;0.93;0.40;;;;;;;;;;5092570;28;20122;-63
2021/05/15 07:43:22;;;;;;;1.35;0.13;;;;;;;;;;5091827;28;20145;-62
2021/05/15 07:45:48;;;;;;;0.38;0.10;;;;;;;;;;5088586;28;20058;-63
2021/05/15 07:48:13;;;;;;;0.10;0.10;;;;;;;;;;5096574;28;20478;-62
2021/05/15 07:50:39;;;;;;;2.72;0.20;;;;;;;;;;5099187;28;20025;-62
2021/05/15 07:53:04;;;;;;;0.73;0.10;;;;;;;;;;5109563;28;20018;-62
2021/05/15 07:55:29;;;;;;;0.28;0.17;;;;;;;;;;5091709;28;20024;-62
2021/05/15 07:57:54;;;;;;;1.20;0.17;;;;;;;;;;5090724;28;20020;-62
2021/05/15 08:00:20;;;;;;;0.63;0.10;;;;;;;;;;5103040;28;20015;-62
2021/05/15 08:02:45;;;;;;;0.35;0.10;;;;;;;;;;5108307;28;20386;-62
2021/05/15 08:05:11;;;;;;;0.45;0.25;;;;;;;;;;5108135;28;20535;-62
2021/05/15 08:07:37;;;;;;;0.30;0.15;;;;;;;;;;5093591;28;20020;-62
2021/05/15 08:10:03;;;;;;;1.40;0.20;;;;;;;;;;5105306;28;20028;-61
2021/05/15 08:12:28;;;;;;;0.38;0.10;;;;;;;;;;5095204;28;20080;-62
2021/05/15 08:14:53;;;;;;;0.20;0.13;;;;;;;;;;5093968;28;20024;-61
2021/05/15 08:17:19;;;;;;;0.57;0.10;;;;;;;;;;5089341;28;20047;-61
2021/05/15 08:19:44;;;;;;;0.28;0.10;;;;;;;;;;5094424;28;20095;-61
2021/05/15 08:22:09;;;;;;;0.20;0.10;;;;;;;;;;5099321;28;20114;-61
2021/05/15 08:24:34;;;;;;;0.57;0.10;;;;;;;;;;5099287;28;20016;-61
2021/05/15 08:27:00;;;;;;;0.52;0.10;;;;;;;;;;5094400;28;20047;-61
2021/05/15 08:29:28;;;;;;;0.90;0.30;;;;;;;;;;5098706;28;20394;-61
2021/05/15 08:31:53;;;;;;;1.23;0.05;;;;;;;;;;5098650;28;20055;-61
2021/05/15 08:34:18;;;;;;;0.60;0.30;;;;;;;;;;5108078;28;20467;-61
2021/05/15 08:36:43;;;;;;;0.30;0.10;;;;;;;;;;5092077;28;20506;-61
2021/05/15 08:39:09;;;;;;;0.98;0.10;;;;;;;;;;5096738;28;20095;-60
2021/05/15 08:41:34;;;;;;;1.05;0.10;;;;;;;;;;5097637;28;20216;-61
2021/05/15 08:44:03;;;;;;;0.50;0.10;;;;;;;;;;5102035;28;20016;-61
2021/05/15 08:46:29;;;;;;;0.90;0.10;;;;;;;;;;5088581;28;20057;-60
2021/05/15 08:48:56;;;;;;;1.45;0.10;;;;;;;;;;5105257;28;20054;-61
2021/05/15 08:51:23;;;;;;;1.38;0.10;;;;;;;;;;5103040;28;20020;-61
2021/05/15 08:53:48;;;;;;;2.05;0.00;;;;;;;;;;5103993;28;20140;-60
2021/05/15 08:56:14;;;;;;;0.45;0.10;;;;;;;;;;5106599;28;20164;-60
2021/05/15 08:58:39;;;;;;;0.47;0.10;;;;;;;;;;5097674;28;20028;-61
2021/05/15 09:01:05;;;;;;;0.57;0.05;;;;;;;;;;5109691;28;20380;-61
2021/05/15 09:03:31;;;;;;;0.45;0.10;;;;;;;;;;5110104;28;20043;-62
2021/05/15 09:05:56;;;;;;;0.40;0.10;;;;;;;;;;5107944;28;20066;-62
2021/05/15 09:08:22;;;;;;;0.60;0.05;;;;;;;;;;5105629;28;20053;-61
2021/05/15 09:10:49;;;;;;;1.00;0.10;;;;;;;;;;5097656;28;20065;-62
2021/05/15 09:13:19;;;;;;;0.20;0.00;;;;;;;;;;5097995;28;20371;-62
2021/05/15 09:15:48;;;;;;;0.30;0.03;;;;;;;;;;5099167;28;20067;-62
2021/05/15 09:18:15;;;;;;;0.40;0.10;;;;;;;;;;5099367;28;20018;-61
2021/05/15 09:20:41;;;;;;;0.40;0.13;;;;;;;;;;5091828;28;20039;-61
2021/05/15 09:23:10;;;;;;;0.95;0.10;;;;;;;;;;5091163;28;20510;-61
2021/05/15 09:25:35;;;;;;;0.17;0.10;;;;;;;;;;5103432;28;20444;-62
2021/05/15 09:28:00;;;;;;;0.65;0.10;;;;;;;;;;5100968;28;20130;-63
2021/05/15 09:30:29;;;;;;;1.33;0.10;;;;;;;;;;5104172;28;20043;-60
2021/05/15 09:32:54;;;;;;;0.68;0.10;;;;;;;;;;5094097;28;20315;-62
2021/05/15 09:35:21;;;;;;;1.35;0.15;;;;;;;;;;5106105;28;20019;-63
2021/05/15 09:37:48;;;;;;;0.22;0.10;;;;;;;;;;5108725;28;20047;-63
2021/05/15 09:40:15;;;;;;;0.60;0.10;;;;;;;;;;5101587;28;20531;-63
2021/05/15 09:42:44;;;;;;;0.13;0.00;;;;;;;;;;5105175;28;20378;-64
2021/05/15 09:45:20;;;;;;;0.52;0.10;;;;;;;;;;5095876;28;20092;-64
2021/05/15 09:47:51;;;;;;;0.40;0.10;;;;;;;;;;5102864;28;20522;-63
2021/05/15 09:50:17;;;;;;;0.35;0.10;;;;;;;;;;5111551;28;20034;-62
2021/05/15 09:52:42;;;;;;;0.50;0.10;;;;;;;;;;5112482;28;20098;-62
2021/05/15 09:55:08;;;;;;;0.32;0.10;;;;;;;;;;5103073;28;20024;-63
2021/05/15 09:57:34;;;;;;;0.30;0.10;;;;;;;;;;5111820;28;20027;-62
2021/05/15 10:00:09;;;;;;;0.57;0.13;;;;;;;;;;5103287;28;20020;-62
2021/05/15 10:02:34;;;;;;;;;;;;;;;;;;5111605;28;20069;-62
2021/05/15 10:05:08;;;;;;;1.00;0.00;;;;;;;;;;5112781;28;19907;-63
2021/05/15 10:07:33;;;;;;;0.82;0.10;;;;;;;;;;5106440;28;20394;-63
2021/05/15 10:10:03;;;;;;;1.65;0.15;;;;;;;;;;5108296;28;20023;-62
2021/05/15 10:12:29;;;;;;;0.30;0.10;;;;;;;;;;5100741;28;20042;-62
2021/05/15 10:14:55;;;;;;;0.57;0.10;;;;;;;;;;5101349;28;20067;-61
2021/05/15 10:17:20;;;;;;;0.45;0.10;;;;;;;;;;5110295;28;20024;-61
2021/05/15 10:19:46;;;;;;;0.77;0.10;;;;;;;;;;5105633;28;20020;-67
2021/05/15 10:22:11;;;;;;;0.30;0.10;;;;;;;;;;5107966;28;20478;-64
2021/05/15 10:24:36;;;;;;;0.85;0.10;;;;;;;;;;5099996;28;20054;-64
2021/05/15 10:27:07;;;;;;;1.17;0.10;;;;;;;;;;5095018;28;20448;-63
2021/05/15 10:29:38;;;;;;;0.25;0.05;;;;;;;;;;5096517;28;20024;-63
2021/05/15 10:32:04;;;;;;;0.10;0.10;;;;;;;;;;5099968;28;20023;-63
2021/05/15 10:34:33;;;;;;;0.20;0.05;;;;;;;;;;5107692;28;20016;-63
2021/05/15 10:36:58;;;;;;;0.45;0.10;;;;;;;;;;5106047;28;20051;-63
2021/05/15 10:39:24;;;;;;;0.93;0.10;;;;;;;;;;5098964;28;20024;-63
2021/05/15 10:41:49;;;;;;;0.57;0.25;;;;;;;;;;5101253;28;20042;-63
2021/05/15 10:44:14;;;;;;;0.60;0.13;;;;;;;;;;5098353;28;20454;-63
2021/05/15 10:46:47;;;;;;;2.85;0.10;;;;;;;;;;5094124;28;20528;-63
2021/05/15 10:49:16;;;;;;;0.20;0.20;;;;;;;;;;5096552;28;20024;-63
2021/05/15 10:51:46;;;;;;;0.25;0.10;;;;;;;;;;5103078;28;20047;-63
2021/05/15 10:54:13;;;;;;;0.45;0.10;;;;;;;;;;5095166;28;20149;-63
2021/05/15 10:56:39;;;;;;;0.88;0.10;;;;;;;;;;5099681;28;20076;-63
2021/05/15 10:59:08;;;;;;;0.30;0.20;;;;;;;;;;5101643;28;20379;-63
2021/05/15 11:01:46;;;;;;;0.22;0.08;;;;;;;;;;5100860;28;20459;-63
2021/05/15 11:04:18;;;;;;;0.20;0.15;;;;;;;;;;5102286;28;20414;-63
2021/05/15 11:06:54;;;;;;;0.20;0.10;;;;;;;;;;5091412;28;20020;-63
2021/05/15 11:09:19;;;;;;;0.98;0.10;;;;;;;;;;5102646;28;20020;-64
2021/05/15 11:11:45;;;;;;;2.15;0.00;;;;;;;;;;5102675;28;20016;-64
2021/05/15 11:14:29;;;;;;;0.65;0.05;;;;;;;;;;5093646;28;20047;-64
2021/05/15 11:17:03;;;;;;;1.55;0.82;;;;;;;;;;5108085;28;20020;-64
2021/05/15 11:19:28;;;;;;;4.50;0.73;;;;;;;;;;5111235;28;20047;-64
2021/05/15 11:21:53;;;;;;;0.30;0.30;;;;;;;;;;5108537;28;20363;-64
2021/05/15 11:24:27;;;;;;;0.38;0.08;;;;;;;;;;5097930;28;20020;-64
2021/05/15 11:26:53;;;;;;;0.73;0.10;;;;;;;;;;5101260;28;20376;-64
2021/05/15 11:29:30;;;;;;;0.20;0.10;;;;;;;;;;5094443;28;20471;-64
2021/05/15 11:32:24;;;;;;;0.43;0.10;;;;;;;;;;5110042;28;20031;-64
2021/05/15 11:34:49;;;;;;;1.50;0.50;;;;;;;;;;5108145;28;20514;-64
2021/05/15 11:37:14;;;;;;;1.25;0.10;;;;;;;;;;5100200;28;20020;-64
2021/05/15 11:39:53;;;;;;;0.50;0.10;;;;;;;;;;5099256;28;20020;-65
2021/05/15 11:42:18;;;;;;;0.32;0.10;;;;;;;;;;5104335;28;20023;-64
2021/05/15 11:44:56;;;;;;;0.52;0.10;;;;;;;;;;5108762;28;20026;-65
2021/05/15 11:47:31;;;;;;;0.20;0.00;;;;;;;;;;5088317;28;20019;-64
2021/05/15 11:50:07;;;;;;;1.38;0.22;;;;;;;;;;5092530;28;20036;-64
2021/05/15 11:52:51;;;;;;;;;;;;;;;;;;;;;
2021/05/15 11:55:24;;;;;;;1.08;0.10;;;;;;;;;;5104324;28;20031;-66
2021/05/15 11:57:54;;;;;;;0.30;0.10;;;;;;;;;;5087640;28;20016;-65
2021/05/15 12:00:26;;;;;;;0.40;0.00;;;;;;;;;;5100894;28;20013;-65
2021/05/15 12:02:51;;;;;;;0.35;0.10;;;;;;;;;;5091458;28;20103;-62
2021/05/15 12:05:17;;;;;;;0.10;0.00;;;;;;;;;;5106317;28;20420;-65
2021/05/15 12:07:52;;;;;;;1.55;0.10;;;;;;;;;;5097949;28;20054;-65
2021/05/15 12:10:24;;;;;;;0.88;0.10;;;;;;;;;;5103183;28;20134;-64
2021/05/15 12:13:08;;;;;;;0.80;0.00;;;;;;;;;;5102181;28;20118;-65
2021/05/15 12:15:36;;;;;;;0.10;0.00;;;;;;;;;;5104228;28;20015;-64
2021/05/15 12:18:01;;;;;;;0.10;0.00;;;;;;;;;;5107292;28;20023;-65
2021/05/15 12:20:26;;;;;;;0.20;0.03;;;;;;;;;;5102310;28;20015;-65
2021/05/15 12:23:02;;;;;;;0.38;0.00;;;;;;;;;;5095848;28;20069;-62
2021/05/15 12:25:27;;;;;;;1.08;0.00;;;;;;;;;;5106197;28;20012;-65
2021/05/15 12:27:52;;;;;;;0.20;0.00;;;;;;;;;;5099802;28;20066;-62
2021/05/15 12:30:20;;;;;;;1.10;0.10;;;;;;;;;;5092392;28;20031;-63
2021/05/15 12:32:46;;;;;;;0.00;0.00;;;;;;;;;;5097006;28;20666;-63
2021/05/15 12:35:11;;;;;;;0.28;0.00;;;;;;;;;;5102466;28;20042;-64
2021/05/15 12:37:38;;;;;;;0.20;0.00;;;;;;;;;;5099079;28;20435;-63
2021/05/15 12:40:04;;;;;;;0.10;0.00;;;;;;;;;;5101676;28;20020;-64
2021/05/15 12:42:33;;;;;;;0.60;0.00;;;;;;;;;;5111396;28;20020;-63
2021/05/15 12:45:15;;;;;;;0.93;0.10;;;;;;;;;;5103269;28;20047;-63
2021/05/15 12:47:40;;;;;;;0.88;0.05;;;;;;;;;;5100854;27;20011;-63
2021/05/15 12:50:27;;;;;;;1.13;0.28;;;;;;;;;;5100782;28;20043;-65
2021/05/15 12:53:03;;;;;;;0.77;0.10;;;;;;;;;;5101981;28;20023;-64
2021/05/15 12:55:28;;;;;;;0.25;0.10;;;;;;;;;;5099758;28;20036;-64
2021/05/15 12:57:54;;;;;;;0.65;0.10;;;;;;;;;;5107255;28;20028;-64
2021/05/15 13:00:20;;;;;;;0.22;0.00;;;;;;;;;;5099514;28;20015;-63
2021/05/15 13:02:54;;;;;;;1.50;0.10;;;;;;;;;;5101752;28;20466;-65
2021/05/15 13:05:19;;;;;;;0.10;0.08;;;;;;;;;;5104289;28;20018;-64
2021/05/15 13:07:44;;;;;;;0.50;0.10;;;;;;;;;;5100417;28;20031;-65
2021/05/15 13:10:11;;;;;;;0.33;0.00;;;;;;;;;;5108001;28;20027;-64
2021/05/15 13:12:37;;;;;;;0.10;0.10;;;;;;;;;;5108155;28;20269;-64
2021/05/15 13:15:03;;;;;;;0.10;0.10;;;;;;;;;;5110015;28;20016;-64
2021/05/15 13:17:28;;;;;;;0.10;0.00;;;;;;;;;;5107229;28;20023;-64
2021/05/15 13:19:54;;;;;;;0.10;0.10;;;;;;;;;;5106624;28;20023;-64
2021/05/15 13:22:19;;;;;;;0.20;0.00;;;;;;;;;;5108503;28;20288;-64
2021/05/15 13:24:44;;;;;;;0.10;0.00;;;;;;;;;;5114149;28;20015;-64
2021/05/15 13:27:10;;;;;;;0.28;0.00;;;;;;;;;;5111986;27;20124;-64
2021/05/15 13:29:36;;;;;;;0.10;0.03;;;;;;;;;;5096989;28;20020;-64
2021/05/15 13:32:01;;;;;;;0.17;0.00;;;;;;;;;;5105608;28;20019;-64
2021/05/15 13:34:27;;;;;;;0.10;0.00;;;;;;;;;;5114755;28;20023;-64
2021/05/15 13:36:52;;;;;;;0.05;0.00;;;;;;;;;;5099530;28;20024;-64
2021/05/15 13:39:18;;;;;;;0.10;0.03;;;;;;;;;;5099244;28;20437;-64
2021/05/15 13:41:44;;;;;;;0.50;0.00;;;;;;;;;;5098100;28;20027;-64
2021/05/15 13:44:09;;;;;;;0.32;0.00;;;;;;;;;;5105544;28;20442;-64
2021/05/15 13:46:35;;;;;;;0.20;0.10;;;;;;;;;;5092005;28;20015;-64
2021/05/15 13:49:01;;;;;;;0.28;0.05;;;;;;;;;;5103888;28;20019;-64
2021/05/15 13:51:27;;;;;;;1.15;0.03;;;;;;;;;;5095723;28;20012;-63
2021/05/15 13:53:52;;;;;;;0.22;0.10;;;;;;;;;;5097336;28;20014;-64
2021/05/15 13:56:17;;;;;;;0.10;0.00;;;;;;;;;;5094840;28;20024;-64
2021/05/15 13:58:43;;;;;;;0.08;0.00;;;;;;;;;;5098267;28;20062;-65
2021/05/15 14:01:09;;;;;;;3.22;0.10;;;;;;;;;;5100162;28;20051;-65
2021/05/15 14:03:35;;;;;;;3.78;0.10;;;;;;;;;;5112981;28;20016;-64
2021/05/15 14:06:00;;;;;;;0.00;0.00;;;;;;;;;;5091242;28;20438;-65
2021/05/15 14:08:26;;;;;;;2.70;0.10;;;;;;;;;;5094622;28;20016;-64
2021/05/15 14:10:52;;;;;;;0.25;0.05;;;;;;;;;;5101977;28;20058;-64
2021/05/15 14:13:17;;;;;;;0.05;0.00;;;;;;;;;;5094173;28;20387;-64
2021/05/15 14:15:43;;;;;;;0.88;0.00;;;;;;;;;;5092835;28;20047;-65
2021/05/15 14:18:08;;;;;;;0.17;0.00;;;;;;;;;;5098336;28;20020;-64
2021/05/15 14:20:35;;;;;;;0.50;0.00;;;;;;;;;;5092137;28;20028;-64
2021/05/15 14:23:00;;;;;;;0.17;0.00;;;;;;;;;;5093894;28;20107;-64
2021/05/15 14:25:25;;;;;;;0.20;0.10;;;;;;;;;;5097335;28;20145;-64
2021/05/15 14:27:50;;;;;;;0.60;0.00;;;;;;;;;;5094561;28;20157;-64
2021/05/15 14:30:16;;;;;;;0.00;0.00;;;;;;;;;;5106520;28;20106;-64
2021/05/15 14:32:41;;;;;;;0.45;0.10;;;;;;;;;;5099274;28;20485;-65
2021/05/15 14:35:07;;;;;;;0.10;0.00;;;;;;;;;;5096878;28;20478;-65
2021/05/15 14:37:32;;;;;;;0.08;0.00;;;;;;;;;;5093267;28;20028;-65
2021/05/15 14:39:58;;;;;;;1.55;0.10;;;;;;;;;;5102527;28;20488;-64
2021/05/15 14:42:23;;;;;;;1.55;0.25;;;;;;;;;;5094099;28;20023;-64
2021/05/15 14:44:48;;;;;;;0.82;0.10;;;;;;;;;;5094479;28;20016;-64